Time;durP1;ratioP1;P1;durP2;ratioP2;P2;SDS_P1;SDS_P2;PMS_P1;PMS_P2;Temp;Humidity;BMP_temperature;BMP_pressure;BME280_temperature;BME280_humidity;BME280_pressure;Samples;Min_cycle;Max_cycle;Signal;HPM_P1;HPM_P2
2023/06/13 00:01:26;;;;;;;3.42;1.60;;;;;;;;;;5058886;28;20098;-64
2023/06/13 00:03:55;;;;;;;3.03;1.67;;;;;;;;;;5074172;28;20109;-63
2023/06/13 00:06:27;;;;;;;3.58;1.55;;;;;;;;;;5078279;28;20159;-63
2023/06/13 00:08:57;;;;;;;4.70;1.60;;;;;;;;;;5077713;28;20048;-65
2023/06/13 00:11:26;;;;;;;3.85;1.40;;;;;;;;;;5079087;28;20063;-63
2023/06/13 00:13:55;;;;;;;5.13;1.40;;;;;;;;;;5074643;28;20133;-64
2023/06/13 00:16:25;;;;;;;5.15;2.35;;;;;;;;;;5069856;28;20472;-66
2023/06/13 00:18:56;;;;;;;4.50;1.50;;;;;;;;;;5072826;28;20058;-63
2023/06/13 00:21:24;;;;;;;3.13;1.40;;;;;;;;;;5079567;28;20131;-64
2023/06/13 00:23:53;;;;;;;3.92;1.58;;;;;;;;;;5075225;28;20043;-64
2023/06/13 00:26:23;;;;;;;1.88;1.02;;;;;;;;;;5075808;28;20044;-67
2023/06/13 00:28:52;;;;;;;6.30;1.88;;;;;;;;;;5071746;28;20094;-62
2023/06/13 00:31:20;;;;;;;3.67;1.40;;;;;;;;;;5080370;28;20040;-64
2023/06/13 00:33:50;;;;;;;3.90;1.48;;;;;;;;;;5071529;28;20053;-64
2023/06/13 00:36:20;;;;;;;2.53;1.52;;;;;;;;;;5078636;28;20492;-63
2023/06/13 00:38:48;;;;;;;3.15;1.65;;;;;;;;;;5079102;28;20130;-64
2023/06/13 00:41:17;;;;;;;2.45;1.50;;;;;;;;;;5077889;28;20278;-63
2023/06/13 00:43:46;;;;;;;5.38;1.33;;;;;;;;;;5076030;28;20043;-64
2023/06/13 00:46:17;;;;;;;2.17;1.63;;;;;;;;;;5076171;28;20047;-66
2023/06/13 00:48:46;;;;;;;3.70;1.90;;;;;;;;;;5075131;28;20052;-66
2023/06/13 00:51:16;;;;;;;3.05;1.58;;;;;;;;;;5079103;28;20040;-65
2023/06/13 00:53:48;;;;;;;3.05;1.35;;;;;;;;;;5074486;28;20048;-65
2023/06/13 00:56:16;;;;;;;2.35;1.30;;;;;;;;;;5071922;28;20040;-66
2023/06/13 00:58:46;;;;;;;1.65;1.40;;;;;;;;;;5075518;28;20048;-65
2023/06/13 01:01:19;;;;;;;3.20;1.77;;;;;;;;;;5072832;28;20583;-68
2023/06/13 01:03:48;;;;;;;3.38;1.63;;;;;;;;;;5083082;22;20045;-63
2023/06/13 01:06:16;;;;;;;2.45;1.42;;;;;;;;;;5052750;28;20103;-63
2023/06/13 01:08:45;;;;;;;3.55;1.85;;;;;;;;;;5051996;28;20049;-61
2023/06/13 01:11:17;;;;;;;2.83;1.40;;;;;;;;;;5052032;28;20048;-62
2023/06/13 01:13:53;;;;;;;2.60;1.45;;;;;;;;;;5051565;28;20095;-63
2023/06/13 01:16:24;;;;;;;2.53;1.48;;;;;;;;;;5052576;28;20049;-62
2023/06/13 01:18:53;;;;;;;4.65;1.73;;;;;;;;;;5052234;28;20056;-63
2023/06/13 01:21:24;;;;;;;2.83;1.50;;;;;;;;;;5052025;28;20509;-66
2023/06/13 01:23:53;;;;;;;1.73;1.30;;;;;;;;;;5051975;28;20148;-65
2023/06/13 01:26:26;;;;;;;4.68;1.58;;;;;;;;;;5052503;28;20048;-65
2023/06/13 01:28:57;;;;;;;2.30;1.20;;;;;;;;;;5052115;28;20053;-66
2023/06/13 01:31:26;;;;;;;1.95;1.40;;;;;;;;;;5052516;28;20045;-63
2023/06/13 01:33:55;;;;;;;2.83;1.77;;;;;;;;;;5035904;28;20064;-66
2023/06/13 01:36:23;;;;;;;2.00;1.30;;;;;;;;;;5039001;28;20045;-65
2023/06/13 01:38:52;;;;;;;2.90;1.50;;;;;;;;;;5036346;28;20124;-65
2023/06/13 01:41:20;;;;;;;1.83;1.38;;;;;;;;;;5039670;28;20156;-66
2023/06/13 01:43:48;;;;;;;2.10;1.45;;;;;;;;;;5040076;28;20090;-62
2023/06/13 01:46:23;;;;;;;3.40;1.65;;;;;;;;;;5037446;28;20533;-63
2023/06/13 01:48:56;;;;;;;3.67;1.45;;;;;;;;;;5038612;28;20406;-63
2023/06/13 01:51:28;;;;;;;2.20;1.50;;;;;;;;;;5041097;28;20057;-62
2023/06/13 01:53:57;;;;;;;1.95;1.52;;;;;;;;;;5042079;28;20052;-63
2023/06/13 01:56:27;;;;;;;2.85;1.27;;;;;;;;;;5037316;28;20573;-61
2023/06/13 01:58:57;;;;;;;6.75;1.40;;;;;;;;;;5041841;28;20140;-62
2023/06/13 02:01:27;;;;;;;1.88;1.40;;;;;;;;;;5037733;28;20064;-62
2023/06/13 02:03:56;;;;;;;3.33;1.63;;;;;;;;;;5040293;28;20060;-65
2023/06/13 02:06:24;;;;;;;2.17;1.25;;;;;;;;;;5039404;28;20497;-63
2023/06/13 02:08:53;;;;;;;4.15;2.15;;;;;;;;;;5037236;28;20502;-62
2023/06/13 02:11:21;;;;;;;1.73;1.42;;;;;;;;;;5041896;28;20068;-66
2023/06/13 02:13:50;;;;;;;2.35;1.40;;;;;;;;;;5041072;28;20107;-62
2023/06/13 02:16:18;;;;;;;4.68;1.65;;;;;;;;;;5039208;28;20099;-67
2023/06/13 02:18:48;;;;;;;3.35;1.70;;;;;;;;;;5041645;28;20443;-63
2023/06/13 02:21:17;;;;;;;3.60;1.42;;;;;;;;;;5039154;28;20566;-68
2023/06/13 02:23:46;;;;;;;2.13;1.42;;;;;;;;;;5035044;28;20128;-68
2023/06/13 02:26:16;;;;;;;3.22;1.70;;;;;;;;;;5037512;28;20041;-64
2023/06/13 02:28:45;;;;;;;2.95;1.77;;;;;;;;;;5039143;28;20600;-62
2023/06/13 02:31:14;;;;;;;3.65;1.67;;;;;;;;;;5040603;28;20056;-62
2023/06/13 02:33:43;;;;;;;3.63;1.30;;;;;;;;;;5038845;28;20064;-63
2023/06/13 02:36:13;;;;;;;4.88;1.80;;;;;;;;;;5037003;28;20045;-63
2023/06/13 02:38:41;;;;;;;3.75;1.65;;;;;;;;;;5039623;28;20041;-63
2023/06/13 02:41:10;;;;;;;3.80;1.20;;;;;;;;;;5039274;28;20045;-66
2023/06/13 02:43:38;;;;;;;3.55;1.55;;;;;;;;;;5035561;28;20123;-66
2023/06/13 02:46:07;;;;;;;4.32;1.70;;;;;;;;;;5037471;28;20771;-63
2023/06/13 02:48:35;;;;;;;2.20;1.38;;;;;;;;;;5040715;28;20041;-63
2023/06/13 02:51:07;;;;;;;4.35;1.70;;;;;;;;;;5035974;28;20128;-61
2023/06/13 02:53:37;;;;;;;1.73;1.10;;;;;;;;;;5040653;28;20542;-62
2023/06/13 02:56:06;;;;;;;2.63;1.30;;;;;;;;;;5040482;28;20464;-65
2023/06/13 02:58:35;;;;;;;3.45;1.58;;;;;;;;;;5040459;28;20052;-62
2023/06/13 03:01:03;;;;;;;2.42;1.65;;;;;;;;;;5040080;28;20073;-63
2023/06/13 03:03:32;;;;;;;1.52;0.98;;;;;;;;;;5037280;28;20079;-61
2023/06/13 03:06:01;;;;;;;60.70;16.48;;;;;;;;;;5038806;28;20067;-63
2023/06/13 03:08:30;;;;;;;6.95;1.75;;;;;;;;;;5039024;28;20057;-61
2023/06/13 03:11:00;;;;;;;4.13;1.83;;;;;;;;;;5040642;28;20056;-61
2023/06/13 03:13:28;;;;;;;1.83;1.20;;;;;;;;;;5038501;28;20049;-66
2023/06/13 03:15:57;;;;;;;4.75;1.48;;;;;;;;;;5039302;28;20053;-63
2023/06/13 03:18:26;;;;;;;3.20;1.42;;;;;;;;;;5040337;28;20110;-62
2023/06/13 03:20:54;;;;;;;2.13;1.42;;;;;;;;;;5036437;28;20144;-62
2023/06/13 03:23:22;;;;;;;1.60;1.20;;;;;;;;;;5052010;28;20098;-67
2023/06/13 03:25:51;;;;;;;1.98;1.60;;;;;;;;;;5059269;28;20456;-64
2023/06/13 03:28:21;;;;;;;3.75;1.73;;;;;;;;;;5058659;28;20048;-64
2023/06/13 03:30:51;;;;;;;3.65;1.45;;;;;;;;;;5060477;28;20060;-66
2023/06/13 03:33:20;;;;;;;2.03;1.20;;;;;;;;;;5059597;28;20083;-61
2023/06/13 03:35:48;;;;;;;3.20;1.38;;;;;;;;;;5055497;28;20048;-62
2023/06/13 03:38:16;;;;;;;1575.03;778.67;;;;;;;;;;5060557;28;20064;-62
2023/06/13 03:40:45;;;;;;;4.30;1.63;;;;;;;;;;5054707;28;20067;-61
2023/06/13 03:43:13;;;;;;;2.50;1.75;;;;;;;;;;5057208;28;20048;-62
2023/06/13 03:45:43;;;;;;;3.28;1.67;;;;;;;;;;5059284;28;20137;-61
2023/06/13 03:48:11;;;;;;;4.75;1.70;;;;;;;;;;5060061;28;20048;-61
2023/06/13 03:50:40;;;;;;;3.63;1.45;;;;;;;;;;5056447;28;20433;-61
2023/06/13 03:53:08;;;;;;;3.05;1.80;;;;;;;;;;5059635;28;20903;-63
2023/06/13 03:55:37;;;;;;;2.60;1.58;;;;;;;;;;5052814;28;20098;-66
2023/06/13 03:58:05;;;;;;;6.38;1.70;;;;;;;;;;5058318;28;20102;-60
2023/06/13 04:00:34;;;;;;;1.98;1.20;;;;;;;;;;5058614;28;20106;-62
2023/06/13 04:03:04;;;;;;;1.85;1.40;;;;;;;;;;5058792;28;20123;-61
2023/06/13 04:05:32;;;;;;;2.03;1.45;;;;;;;;;;5074205;28;20097;-60
2023/06/13 04:08:02;;;;;;;2.85;1.27;;;;;;;;;;5079534;28;20048;-60
2023/06/13 04:10:30;;;;;;;2.15;1.35;;;;;;;;;;5078785;28;20048;-60
2023/06/13 04:12:59;;;;;;;2.58;1.42;;;;;;;;;;5078367;28;20067;-61
2023/06/13 04:15:27;;;;;;;1.17;0.95;;;;;;;;;;5076692;28;20048;-63
2023/06/13 04:17:55;;;;;;;2.10;1.42;;;;;;;;;;5075638;28;20449;-63
2023/06/13 04:20:25;;;;;;;1.35;1.00;;;;;;;;;;5077226;28;20135;-62
2023/06/13 04:22:54;;;;;;;2.33;1.40;;;;;;;;;;5079524;28;20216;-62
2023/06/13 04:25:23;;;;;;;3.05;1.40;;;;;;;;;;5076516;28;20130;-63
2023/06/13 04:27:53;;;;;;;2.70;1.40;;;;;;;;;;5076701;28;20074;-63
2023/06/13 04:30:21;;;;;;;3.60;1.10;;;;;;;;;;5077811;28;20125;-62
2023/06/13 04:32:49;;;;;;;1.67;1.15;;;;;;;;;;5078767;28;20048;-60
2023/06/13 04:35:22;;;;;;;2.22;1.48;;;;;;;;;;5074009;28;20063;-60
2023/06/13 04:37:52;;;;;;;6.15;1.35;;;;;;;;;;5076831;28;20056;-61
2023/06/13 04:40:23;;;;;;;3.95;1.90;;;;;;;;;;5078164;28;20036;-63
2023/06/13 04:42:54;;;;;;;2.33;1.38;;;;;;;;;;5077556;28;20516;-66
2023/06/13 04:45:24;;;;;;;3.70;1.40;;;;;;;;;;5074509;28;20044;-66
2023/06/13 04:47:57;;;;;;;2.22;1.42;;;;;;;;;;5073421;28;20600;-66
2023/06/13 04:50:26;;;;;;;3.78;2.22;;;;;;;;;;5077237;28;20113;-62
2023/06/13 04:52:56;;;;;;;6.30;1.35;;;;;;;;;;5072718;28;20060;-65
2023/06/13 04:55:32;;;;;;;3.42;1.50;;;;;;;;;;5072605;28;20105;-64
2023/06/13 04:58:00;;;;;;;2.80;1.60;;;;;;;;;;5073970;28;20044;-61
2023/06/13 05:00:29;;;;;;;2.25;1.25;;;;;;;;;;5072073;28;20075;-61
2023/06/13 05:03:00;;;;;;;3.20;1.55;;;;;;;;;;5074141;28;20044;-68
2023/06/13 05:05:29;;;;;;;2.17;1.63;;;;;;;;;;5075271;28;20044;-61
2023/06/13 05:08:00;;;;;;;3.75;1.35;;;;;;;;;;5078468;28;20084;-61
2023/06/13 05:10:28;;;;;;;2.78;1.42;;;;;;;;;;5078687;28;20071;-60
2023/06/13 05:12:57;;;;;;;2.47;1.48;;;;;;;;;;5074127;28;20110;-62
2023/06/13 05:15:26;;;;;;;3.30;1.63;;;;;;;;;;5078721;28;20173;-65
2023/06/13 05:17:56;;;;;;;5.25;1.83;;;;;;;;;;5080153;28;20114;-61
2023/06/13 05:20:30;;;;;;;2.77;1.33;;;;;;;;;;5079506;28;20120;-60
2023/06/13 05:23:01;;;;;;;3.70;1.45;;;;;;;;;;5074898;28;20133;-61
2023/06/13 05:25:30;;;;;;;2.58;1.48;;;;;;;;;;5078091;28;20047;-63
2023/06/13 05:27:58;;;;;;;3.13;1.50;;;;;;;;;;5075130;28;20079;-62
2023/06/13 05:30:27;;;;;;;2.65;1.52;;;;;;;;;;5070184;28;20078;-63
2023/06/13 05:32:56;;;;;;;2.35;1.30;;;;;;;;;;5077992;28;20169;-63
2023/06/13 05:35:25;;;;;;;4.10;1.58;;;;;;;;;;5076818;28;20471;-62
2023/06/13 05:37:54;;;;;;;5.60;1.40;;;;;;;;;;5074701;28;20068;-65
2023/06/13 05:40:23;;;;;;;1.80;1.48;;;;;;;;;;5076901;28;20122;-65
2023/06/13 05:42:52;;;;;;;3.08;1.40;;;;;;;;;;5079252;28;20044;-61
2023/06/13 05:45:20;;;;;;;4.00;1.98;;;;;;;;;;5078933;28;20114;-62
2023/06/13 05:47:48;;;;;;;2.85;1.48;;;;;;;;;;5080101;28;20627;-61
2023/06/13 05:50:17;;;;;;;2.45;1.33;;;;;;;;;;5079243;28;20047;-63
2023/06/13 05:52:45;;;;;;;1.98;1.30;;;;;;;;;;5078163;28;20102;-62
2023/06/13 05:55:14;;;;;;;3.90;1.30;;;;;;;;;;5080496;28;20407;-62
2023/06/13 05:57:46;;;;;;;2.05;1.30;;;;;;;;;;5079432;28;20044;-62
2023/06/13 06:00:15;;;;;;;1.85;1.20;;;;;;;;;;5076495;28;20855;-62
2023/06/13 06:02:45;;;;;;;4.55;1.50;;;;;;;;;;5079928;28;20068;-66
2023/06/13 06:05:15;;;;;;;2.85;1.27;;;;;;;;;;5077952;28;20044;-62
2023/06/13 06:07:45;;;;;;;1.55;1.30;;;;;;;;;;5078586;28;20067;-62
2023/06/13 06:10:14;;;;;;;1.58;1.30;;;;;;;;;;5079581;28;20097;-64
2023/06/13 06:12:43;;;;;;;2.45;1.33;;;;;;;;;;5079045;28;20097;-67
2023/06/13 06:15:12;;;;;;;3.42;1.27;;;;;;;;;;5077465;28;20105;-61
2023/06/13 06:17:41;;;;;;;2.95;1.30;;;;;;;;;;5077830;28;20630;-61
2023/06/13 06:20:10;;;;;;;3.40;1.50;;;;;;;;;;5078719;28;20101;-67
2023/06/13 06:22:39;;;;;;;2.65;1.52;;;;;;;;;;5078792;28;20081;-66
2023/06/13 06:25:11;;;;;;;4.10;1.38;;;;;;;;;;5079029;28;20083;-62
2023/06/13 06:27:43;;;;;;;2.10;1.30;;;;;;;;;;5084662;28;20069;-61
2023/06/13 06:30:13;;;;;;;1.80;1.30;;;;;;;;;;5081919;28;20557;-62
2023/06/13 06:32:43;;;;;;;3.00;1.50;;;;;;;;;;5080448;28;20524;-65
2023/06/13 06:35:11;;;;;;;2.00;1.40;;;;;;;;;;5080766;28;20467;-62
2023/06/13 06:37:40;;;;;;;2.72;1.60;;;;;;;;;;5083101;28;20072;-62
2023/06/13 06:40:09;;;;;;;2.72;1.42;;;;;;;;;;5083470;28;20048;-63
2023/06/13 06:42:37;;;;;;;3.03;1.48;;;;;;;;;;5082161;28;20250;-62
2023/06/13 06:45:09;;;;;;;3.17;1.77;;;;;;;;;;5081265;28;20047;-61
2023/06/13 06:47:39;;;;;;;3.50;1.35;;;;;;;;;;5082526;28;20079;-61
2023/06/13 06:50:07;;;;;;;2.05;1.30;;;;;;;;;;5081836;28;20047;-62
2023/06/13 06:52:36;;;;;;;2.03;1.33;;;;;;;;;;5081277;28;20054;-62
2023/06/13 06:55:05;;;;;;;3.20;1.45;;;;;;;;;;5080957;28;20561;-63
2023/06/13 06:57:34;;;;;;;2.70;1.30;;;;;;;;;;5083155;28;20054;-67
2023/06/13 07:00:03;;;;;;;3.83;1.73;;;;;;;;;;5079514;28;20048;-64
2023/06/13 07:02:32;;;;;;;4.68;1.40;;;;;;;;;;5078006;28;20044;-61
2023/06/13 07:05:02;;;;;;;3.13;1.52;;;;;;;;;;5076863;28;20066;-61
2023/06/13 07:07:32;;;;;;;1.65;1.02;;;;;;;;;;5082183;28;20052;-66
2023/06/13 07:10:01;;;;;;;3.33;1.25;;;;;;;;;;5080662;28;20044;-64
2023/06/13 07:12:32;;;;;;;3.40;1.67;;;;;;;;;;5079960;28;20457;-62
2023/06/13 07:15:00;;;;;;;1.83;1.30;;;;;;;;;;5083586;28;20051;-61
2023/06/13 07:17:29;;;;;;;2.72;1.30;;;;;;;;;;5082870;28;20497;-61
2023/06/13 07:19:57;;;;;;;3.03;1.30;;;;;;;;;;5082664;28;20070;-62
2023/06/13 07:22:27;;;;;;;3.10;1.60;;;;;;;;;;5081218;28;20067;-63
2023/06/13 07:24:55;;;;;;;2.92;1.50;;;;;;;;;;5080911;28;20051;-61
2023/06/13 07:27:24;;;;;;;2.90;1.67;;;;;;;;;;5083016;28;20138;-63
2023/06/13 07:29:52;;;;;;;2.13;1.35;;;;;;;;;;5082137;28;20112;-62
2023/06/13 07:32:21;;;;;;;1.60;1.20;;;;;;;;;;5081286;28;20052;-63
2023/06/13 07:34:50;;;;;;;2.10;1.08;;;;;;;;;;5080384;28;20051;-63
2023/06/13 07:37:35;;;;;;;2.97;1.25;;;;;;;;;;5078764;28;20101;-63
2023/06/13 07:40:05;;;;;;;1.95;1.33;;;;;;;;;;5080403;28;20135;-60
2023/06/13 07:42:33;;;;;;;2.78;1.50;;;;;;;;;;5082295;28;20548;-63
2023/06/13 07:45:02;;;;;;;2.63;1.33;;;;;;;;;;5079039;28;20048;-64
2023/06/13 07:47:30;;;;;;;2.65;1.52;;;;;;;;;;5082485;28;20044;-64
2023/06/13 07:49:59;;;;;;;2.83;1.13;;;;;;;;;;5081785;28;20047;-63
2023/06/13 07:52:27;;;;;;;2.00;1.20;;;;;;;;;;5081219;28;20063;-64
2023/06/13 07:54:57;;;;;;;3.80;1.17;;;;;;;;;;5080805;28;20051;-65
2023/06/13 07:57:25;;;;;;;6.32;1.45;;;;;;;;;;5081252;28;20059;-64
2023/06/13 08:00:16;;;;;;;2.20;1.45;;;;;;;;;;5078698;28;20044;-66
2023/06/13 08:02:45;;;;;;;3.92;1.67;;;;;;;;;;5077744;28;20431;-62
2023/06/13 08:05:14;;;;;;;2.88;1.50;;;;;;;;;;5079774;28;20040;-64
2023/06/13 08:07:43;;;;;;;1.55;1.10;;;;;;;;;;5077781;28;20055;-67
2023/06/13 08:10:13;;;;;;;4.07;1.55;;;;;;;;;;5080068;28;20573;-64
2023/06/13 08:12:42;;;;;;;4.80;1.17;;;;;;;;;;5073643;28;20043;-63
2023/06/13 08:15:10;;;;;;;1.63;1.10;;;;;;;;;;5077316;28;20056;-62
2023/06/13 08:17:41;;;;;;;2.65;1.20;;;;;;;;;;5076345;28;20052;-65
2023/06/13 08:20:10;;;;;;;1.15;1.05;;;;;;;;;;5074389;28;20370;-64
2023/06/13 08:22:40;;;;;;;1.80;1.00;;;;;;;;;;5077102;28;20058;-62
2023/06/13 08:25:09;;;;;;;2.20;1.00;;;;;;;;;;5078856;28;20052;-61
2023/06/13 08:27:41;;;;;;;2.13;1.10;;;;;;;;;;5078081;28;20048;-67
2023/06/13 08:30:10;;;;;;;2.60;1.52;;;;;;;;;;5078068;28;20048;-63
2023/06/13 08:32:41;;;;;;;5.05;1.17;;;;;;;;;;5075960;28;20109;-64
2023/06/13 08:35:10;;;;;;;2.30;1.13;;;;;;;;;;5074599;28;20558;-69
2023/06/13 08:37:39;;;;;;;4.43;0.93;;;;;;;;;;5079574;28;20047;-62
2023/06/13 08:40:10;;;;;;;45.20;9.07;;;;;;;;;;5074266;28;20047;-61
2023/06/13 08:42:40;;;;;;;2.00;1.25;;;;;;;;;;5080069;28;20407;-66
2023/06/13 08:45:09;;;;;;;2.05;1.25;;;;;;;;;;5078395;28;20089;-64
2023/06/13 08:47:38;;;;;;;3.72;1.27;;;;;;;;;;5079729;28;20109;-67
2023/06/13 08:50:07;;;;;;;3.30;1.30;;;;;;;;;;5078495;28;20086;-61
2023/06/13 08:52:38;;;;;;;1.90;1.13;;;;;;;;;;5077336;28;20136;-62
2023/06/13 08:55:08;;;;;;;2.03;1.23;;;;;;;;;;5076636;28;20199;-63
2023/06/13 08:57:59;;;;;;;3.35;1.10;;;;;;;;;;5078100;28;20048;-66
2023/06/13 09:00:28;;;;;;;2.05;0.80;;;;;;;;;;5078566;28;20048;-61
2023/06/13 09:02:57;;;;;;;1.88;1.25;;;;;;;;;;5076750;28;20471;-61
2023/06/13 09:05:26;;;;;;;4.15;1.30;;;;;;;;;;5075861;28;20052;-65
2023/06/13 09:07:56;;;;;;;6.13;1.45;;;;;;;;;;5078776;28;20068;-62
2023/06/13 09:10:44;;;;;;;2.08;1.02;;;;;;;;;;5077164;28;20052;-62
2023/06/13 09:13:15;;;;;;;2.45;1.33;;;;;;;;;;5078997;28;20040;-62
2023/06/13 09:15:45;;;;;;;2.20;1.00;;;;;;;;;;5078055;28;20044;-62
2023/06/13 09:18:13;;;;;;;2.85;1.00;;;;;;;;;;5076849;28;20131;-65
2023/06/13 09:20:42;;;;;;;4.20;1.13;;;;;;;;;;5078752;28;20048;-63
2023/06/13 09:23:13;;;;;;;5.15;1.58;;;;;;;;;;5078195;28;20475;-61
2023/06/13 09:25:43;;;;;;;3.13;1.30;;;;;;;;;;5077581;28;20060;-62
2023/06/13 09:28:32;;;;;;;2.10;1.05;;;;;;;;;;5077753;28;20044;-62
2023/06/13 09:31:01;;;;;;;2.45;1.17;;;;;;;;;;5079525;28;20512;-64
2023/06/13 09:33:29;;;;;;;3.08;1.15;;;;;;;;;;5077519;28;20048;-62
2023/06/13 09:35:58;;;;;;;1.92;1.35;;;;;;;;;;5076925;28;20047;-63
2023/06/13 09:38:30;;;;;;;3.30;1.13;;;;;;;;;;5077734;28;20093;-64
2023/06/13 09:41:00;;;;;;;3.60;1.05;;;;;;;;;;5078073;28;20360;-64
2023/06/13 09:43:28;;;;;;;2.22;1.30;;;;;;;;;;5076309;28;20055;-64
2023/06/13 09:45:58;;;;;;;2.67;1.30;;;;;;;;;;5076391;28;20419;-63
2023/06/13 09:48:27;;;;;;;2.70;1.20;;;;;;;;;;5075186;28;20557;-64
2023/06/13 09:50:55;;;;;;;4.32;1.00;;;;;;;;;;5078355;28;20044;-65
2023/06/13 09:53:25;;;;;;;2.22;1.35;;;;;;;;;;5078487;28;20511;-65
2023/06/13 09:55:54;;;;;;;2.60;1.05;;;;;;;;;;5078960;28;20540;-62
2023/06/13 09:58:22;;;;;;;3.33;1.42;;;;;;;;;;5078317;28;20447;-65
2023/06/13 10:01:03;;;;;;;4.22;1.15;;;;;;;;;;5081175;28;20459;-64
2023/06/13 10:03:32;;;;;;;1.73;1.20;;;;;;;;;;5082727;28;20051;-65
2023/06/13 10:06:01;;;;;;;1.85;0.98;;;;;;;;;;5080569;28;20130;-66
2023/06/13 10:08:31;;;;;;;2.65;1.30;;;;;;;;;;5080514;28;20151;-63
2023/06/13 10:11:01;;;;;;;2.58;1.35;;;;;;;;;;5082032;28;21250;-64
2023/06/13 10:13:30;;;;;;;2.47;1.10;;;;;;;;;;5082173;28;20052;-62
2023/06/13 10:15:59;;;;;;;1.75;0.90;;;;;;;;;;5082633;28;20056;-68
2023/06/13 10:18:30;;;;;;;1.70;1.20;;;;;;;;;;5081229;28;20051;-64
2023/06/13 10:21:00;;;;;;;1.77;1.10;;;;;;;;;;5079517;28;20060;-63
2023/06/13 10:23:28;;;;;;;1.50;0.93;;;;;;;;;;5078430;28;20059;-69
2023/06/13 10:25:59;;;;;;;3.47;1.38;;;;;;;;;;5082769;28;20052;-64
2023/06/13 10:28:39;;;;;;;2.95;1.55;;;;;;;;;;5081588;28;20094;-64
2023/06/13 10:31:11;;;;;;;2.53;1.30;;;;;;;;;;5081195;28;20052;-68
2023/06/13 10:33:46;;;;;;;3.50;1.45;;;;;;;;;;5082303;28;20044;-63
2023/06/13 10:36:16;;;;;;;;;;;;;;;;;;5083425;28;20529;-63
2023/06/13 10:39:04;;;;;;;2.53;1.17;;;;;;;;;;5081828;28;19931;-62
2023/06/13 10:41:44;;;;;;;3.58;1.33;;;;;;;;;;5081399;28;20143;-67
2023/06/13 10:44:16;;;;;;;2.13;1.00;;;;;;;;;;5081932;28;20047;-64
2023/06/13 10:46:45;;;;;;;2.65;1.10;;;;;;;;;;5078181;28;20052;-64
2023/06/13 10:49:18;;;;;;;5.53;1.45;;;;;;;;;;5080819;28;20048;-65
2023/06/13 10:51:47;;;;;;;2.05;1.42;;;;;;;;;;5080260;28;20059;-66
2023/06/13 10:54:16;;;;;;;1.85;1.10;;;;;;;;;;5082179;28;20105;-65
2023/06/13 10:56:45;;;;;;;2.30;1.05;;;;;;;;;;5080433;28;20496;-70
2023/06/13 10:59:16;;;;;;;1.95;1.17;;;;;;;;;;5079758;28;20071;-65
2023/06/13 11:01:45;;;;;;;2.60;1.40;;;;;;;;;;5078191;28;20135;-66
2023/06/13 11:04:14;;;;;;;2.90;1.13;;;;;;;;;;5081310;28;20481;-63
2023/06/13 11:06:45;;;;;;;6.20;1.13;;;;;;;;;;5080832;28;20559;-62
2023/06/13 11:09:18;;;;;;;2.58;1.38;;;;;;;;;;5078251;28;20085;-62
2023/06/13 11:11:48;;;;;;;2.80;1.27;;;;;;;;;;5078518;28;20379;-64
2023/06/13 11:14:17;;;;;;;1.88;1.30;;;;;;;;;;5081484;28;20060;-64
2023/06/13 11:16:46;;;;;;;2.60;1.20;;;;;;;;;;5079606;28;20878;-65
2023/06/13 11:19:15;;;;;;;2.00;1.45;;;;;;;;;;5082048;28;20061;-64
2023/06/13 11:21:50;;;;;;;1.90;1.35;;;;;;;;;;5079985;28;20048;-65
2023/06/13 11:24:20;;;;;;;3.38;1.52;;;;;;;;;;5080401;28;20147;-64
2023/06/13 11:26:48;;;;;;;1.92;0.93;;;;;;;;;;5079139;28;20051;-68
2023/06/13 11:29:17;;;;;;;2.35;1.50;;;;;;;;;;5082365;28;20131;-62
2023/06/13 11:31:46;;;;;;;2.05;1.23;;;;;;;;;;5082141;28;20079;-67
2023/06/13 11:34:16;;;;;;;4.28;1.58;;;;;;;;;;5082533;28;20048;-64
2023/06/13 11:36:45;;;;;;;4.45;1.70;;;;;;;;;;5080112;28;20056;-68
2023/06/13 11:39:18;;;;;;;3.53;1.05;;;;;;;;;;5080146;28;20109;-65
2023/06/13 11:41:47;;;;;;;2.53;1.10;;;;;;;;;;5081107;28;20122;-67
2023/06/13 11:44:15;;;;;;;2.65;1.52;;;;;;;;;;5081370;28;20079;-64
2023/06/13 11:46:44;;;;;;;2.85;1.40;;;;;;;;;;5082274;28;20162;-63
2023/06/13 11:49:14;;;;;;;4.55;1.30;;;;;;;;;;5081418;28;20135;-66
2023/06/13 11:51:43;;;;;;;3.28;1.35;;;;;;;;;;5081380;28;20056;-64
2023/06/13 11:54:12;;;;;;;1.75;1.25;;;;;;;;;;5082315;28;20048;-69
2023/06/13 11:56:53;;;;;;;4.70;1.27;;;;;;;;;;5079646;28;20044;-65
2023/06/13 11:59:22;;;;;;;2.10;1.25;;;;;;;;;;5077663;28;20455;-65
2023/06/13 12:01:52;;;;;;;2.13;1.65;;;;;;;;;;5079492;28;20755;-65
2023/06/13 12:04:21;;;;;;;2.88;1.50;;;;;;;;;;5081782;28;20056;-72
2023/06/13 12:06:51;;;;;;;3.20;1.27;;;;;;;;;;5082483;28;20512;-65
2023/06/13 12:09:19;;;;;;;2.22;1.42;;;;;;;;;;5080393;28;20077;-64
2023/06/13 12:11:49;;;;;;;2.20;1.30;;;;;;;;;;5073618;28;20251;-65
2023/06/13 12:14:20;;;;;;;2.03;1.27;;;;;;;;;;5077423;28;20047;-63
2023/06/13 12:16:51;;;;;;;1.92;1.13;;;;;;;;;;5084596;28;20547;-63
2023/06/13 12:19:21;;;;;;;2.97;1.27;;;;;;;;;;5082564;28;20079;-64
2023/06/13 12:21:50;;;;;;;2.53;1.40;;;;;;;;;;5082035;28;20124;-64
2023/06/13 12:24:20;;;;;;;1.60;1.27;;;;;;;;;;5080267;28;20044;-64
2023/06/13 12:26:49;;;;;;;1.77;1.35;;;;;;;;;;5081590;28;20064;-66
2023/06/13 12:29:23;;;;;;;1.95;1.10;;;;;;;;;;5080006;28;20037;-65
2023/06/13 12:31:58;;;;;;;5.60;1.70;;;;;;;;;;5079455;28;20515;-68
2023/06/13 12:34:32;;;;;;;2.38;1.17;;;;;;;;;;5081015;28;20051;-64
2023/06/13 12:37:02;;;;;;;2.15;1.08;;;;;;;;;;5076460;28;20059;-66
2023/06/13 12:39:31;;;;;;;2.38;1.08;;;;;;;;;;5076673;28;21352;-65
2023/06/13 12:42:01;;;;;;;3.63;1.50;;;;;;;;;;5073948;28;20047;-65
2023/06/13 12:44:33;;;;;;;3.33;1.63;;;;;;;;;;5079298;28;20052;-63
2023/06/13 12:47:03;;;;;;;5.30;1.80;;;;;;;;;;5081103;28;20040;-64
2023/06/13 12:49:35;;;;;;;2.55;1.55;;;;;;;;;;5084185;28;20968;-64
2023/06/13 12:52:05;;;;;;;2.08;1.20;;;;;;;;;;5077434;28;20052;-69
2023/06/13 12:54:35;;;;;;;2.92;1.60;;;;;;;;;;5080666;28;20162;-70
2023/06/13 12:57:06;;;;;;;3.63;1.40;;;;;;;;;;5087457;28;20048;-66
2023/06/13 12:59:39;;;;;;;2.75;1.42;;;;;;;;;;5082740;28;20515;-65
2023/06/13 13:02:08;;;;;;;2.20;1.35;;;;;;;;;;5078868;28;20048;-67
2023/06/13 13:04:37;;;;;;;2.40;1.15;;;;;;;;;;5072816;28;20058;-68
2023/06/13 13:07:07;;;;;;;2.47;1.15;;;;;;;;;;5057978;28;20455;-64
2023/06/13 13:09:38;;;;;;;4.85;1.30;;;;;;;;;;5056787;28;20143;-67
2023/06/13 13:12:09;;;;;;;3.70;1.65;;;;;;;;;;5058475;28;20142;-69
2023/06/13 13:14:39;;;;;;;2.10;1.23;;;;;;;;;;5058173;28;20044;-64
2023/06/13 13:17:08;;;;;;;2.58;1.40;;;;;;;;;;5060539;28;20150;-65
2023/06/13 13:19:37;;;;;;;3.33;1.40;;;;;;;;;;5059729;28;20063;-64
2023/06/13 13:22:05;;;;;;;1.98;1.25;;;;;;;;;;5057152;28;20044;-69
2023/06/13 13:24:35;;;;;;;2.80;1.55;;;;;;;;;;5059276;28;20049;-65
2023/06/13 13:27:05;;;;;;;2.53;1.50;;;;;;;;;;5057565;28;20046;-65
2023/06/13 13:29:34;;;;;;;2.28;1.17;;;;;;;;;;5058311;28;20053;-65
2023/06/13 13:32:04;;;;;;;4.80;1.30;;;;;;;;;;5058879;28;20044;-68
2023/06/13 13:34:34;;;;;;;3.05;1.25;;;;;;;;;;5058736;28;20063;-68
2023/06/13 13:37:02;;;;;;;3.17;1.80;;;;;;;;;;5063901;28;20055;-66
2023/06/13 13:39:31;;;;;;;2.60;1.55;;;;;;;;;;5063215;28;20056;-64
2023/06/13 13:41:59;;;;;;;2.40;1.45;;;;;;;;;;5063455;28;21530;-66
2023/06/13 13:44:34;;;;;;;2.88;1.75;;;;;;;;;;5064456;28;22402;-64
2023/06/13 13:47:04;;;;;;;1.25;1.05;;;;;;;;;;5063957;28;20477;-70
2023/06/13 13:49:34;;;;;;;2.35;1.40;;;;;;;;;;5065235;28;20059;-65
2023/06/13 13:52:02;;;;;;;4.60;1.63;;;;;;;;;;5061841;28;20045;-66
2023/06/13 13:54:31;;;;;;;3.58;1.60;;;;;;;;;;5061210;28;20125;-66
2023/06/13 13:57:00;;;;;;;2.33;1.35;;;;;;;;;;5063312;28;20080;-65
2023/06/13 13:59:28;;;;;;;2.97;1.70;;;;;;;;;;5062171;28;20090;-65
2023/06/13 14:01:56;;;;;;;4.20;1.40;;;;;;;;;;5064099;28;20079;-67
2023/06/13 14:04:28;;;;;;;5.07;1.58;;;;;;;;;;5071797;28;20052;-68
2023/06/13 14:06:56;;;;;;;2.47;1.40;;;;;;;;;;5048218;28;20467;-66
2023/06/13 14:09:24;;;;;;;3.28;1.40;;;;;;;;;;5082940;28;20098;-67
2023/06/13 14:11:53;;;;;;;2.40;1.30;;;;;;;;;;5081639;28;20124;-66
2023/06/13 14:14:23;;;;;;;4.20;1.48;;;;;;;;;;5084374;28;20036;-64
2023/06/13 14:16:51;;;;;;;2.20;1.17;;;;;;;;;;5085591;28;20454;-68
2023/06/13 14:19:20;;;;;;;3.47;1.50;;;;;;;;;;5086595;28;20055;-64
2023/06/13 14:21:50;;;;;;;2.72;1.33;;;;;;;;;;5085059;28;20067;-69
2023/06/13 14:24:18;;;;;;;3.42;1.38;;;;;;;;;;5083792;28;20083;-65
2023/06/13 14:26:49;;;;;;;1.92;1.17;;;;;;;;;;5085675;28;20139;-65
2023/06/13 14:29:17;;;;;;;2.15;1.40;;;;;;;;;;5083949;28;20484;-67
2023/06/13 14:31:46;;;;;;;2.53;1.20;;;;;;;;;;5085492;28;20055;-65
2023/06/13 14:34:16;;;;;;;1.75;1.30;;;;;;;;;;5084276;28;20489;-65
2023/06/13 14:36:47;;;;;;;2.67;1.33;;;;;;;;;;5083835;28;20059;-66
2023/06/13 14:39:17;;;;;;;1.83;1.35;;;;;;;;;;5083239;28;20139;-64
2023/06/13 14:41:46;;;;;;;3.25;1.48;;;;;;;;;;5085017;28;20131;-67
2023/06/13 14:44:14;;;;;;;1.70;1.30;;;;;;;;;;5084894;28;20056;-65
2023/06/13 14:46:42;;;;;;;1.80;1.20;;;;;;;;;;5083147;28;21375;-64
2023/06/13 14:49:11;;;;;;;3.58;1.75;;;;;;;;;;5082132;28;20097;-67
2023/06/13 14:51:39;;;;;;;2.70;1.35;;;;;;;;;;5080132;28;20055;-70
2023/06/13 14:54:08;;;;;;;2.80;1.30;;;;;;;;;;5083314;28;20446;-66
2023/06/13 14:56:37;;;;;;;3.92;1.50;;;;;;;;;;5079482;28;20072;-64
2023/06/13 14:59:06;;;;;;;2.35;1.48;;;;;;;;;;5081237;28;21374;-64